Time;durP1;ratioP1;P1;durP2;ratioP2;P2;SDS_P1;SDS_P2;PMS_P1;PMS_P2;Temp;Humidity;BMP_temperature;BMP_pressure;BME280_temperature;BME280_humidity;BME280_pressure;Samples;Min_cycle;Max_cycle;Signal;HPM_P1;HPM_P2
2023/04/03 00:02:45;;;;;;;7.43;1.70;;;1.40;99.90;;;;;;6285910;22;20446;-87
2023/04/03 00:05:11;;;;;;;5.70;1.80;;;2.50;99.90;;;;;;6303795;22;20009;-86
2023/04/03 00:07:37;;;;;;;8.13;1.80;;;1.30;99.90;;;;;;6314234;22;20019;-86
2023/04/03 00:10:03;;;;;;;7.43;2.07;;;1.40;99.90;;;;;;6312082;22;20050;-86
2023/04/03 00:12:31;;;;;;;7.00;1.90;;;1.40;99.90;;;;;;6307750;22;20011;-86
2023/04/03 00:14:57;;;;;;;6.23;1.90;;;1.50;99.90;;;;;;6280239;22;20516;-86
2023/04/03 00:17:41;;;;;;;7.13;1.97;;;1.30;99.90;;;;;;6304757;22;20061;-86
2023/04/03 00:23:48;;;;;;;7.57;1.90;;;0.60;99.90;;;;;;6306605;22;20057;-86
2023/04/03 00:26:29;;;;;;;5.67;2.00;;;1.00;99.90;;;;;;6310450;22;20065;-86
2023/04/03 00:28:55;;;;;;;7.13;2.00;;;1.00;99.90;;;;;;6307410;22;20336;-86
2023/04/03 00:31:37;;;;;;;7.33;2.03;;;1.20;99.90;;;;;;6305752;22;20386;-87
2023/04/03 00:34:02;;;;;;;8.63;2.23;;;1.20;99.90;;;;;;6283250;22;20015;-86
2023/04/03 00:36:37;;;;;;;7.00;2.03;;;1.00;99.90;;;;;;6304559;22;20022;-86
2023/04/03 00:39:02;;;;;;;7.17;1.83;;;0.90;99.90;;;;;;6305141;22;20038;-86
2023/04/03 00:41:28;;;;;;;9.07;2.20;;;1.10;99.90;;;;;;6304964;22;20011;-86
2023/04/03 00:43:54;;;;;;;8.03;2.10;;;1.10;99.90;;;;;;6278734;22;20025;-86
2023/04/03 00:46:19;;;;;;;10.13;2.00;;;1.00;99.90;;;;;;6304917;22;20442;-86
2023/04/03 00:48:47;;;;;;;7.53;2.03;;;1.00;99.90;;;;;;6279604;22;20027;-86
2023/04/03 00:51:34;;;;;;;6.07;1.90;;;1.00;99.90;;;;;;6305953;22;20091;-87
2023/04/03 00:54:04;;;;;;;6.07;1.70;;;0.90;99.90;;;;;;6305044;22;20339;-86
2023/04/03 00:56:31;;;;;;;7.80;2.20;;;0.80;99.90;;;;;;6305187;22;20050;-86
2023/04/03 00:59:04;;;;;;;9.73;2.20;;;0.90;99.90;;;;;;6304762;22;20316;-86
2023/04/03 01:01:31;;;;;;;7.55;2.13;;;0.90;99.90;;;;;;6281339;22;20020;-86
2023/04/03 01:03:59;;;;;;;7.67;1.90;;;0.80;99.90;;;;;;6307122;22;20064;-86
2023/04/03 01:06:43;;;;;;;10.50;2.23;;;0.80;99.90;;;;;;6274860;22;20044;-86
2023/04/03 01:09:09;;;;;;;8.23;2.30;;;0.80;99.90;;;;;;6301745;22;20015;-86
2023/04/03 01:11:34;;;;;;;7.27;2.10;;;0.60;99.90;;;;;;6300752;22;20011;-86
2023/04/03 01:14:17;;;;;;;8.13;1.90;;;0.70;99.90;;;;;;6275373;22;20015;-86
2023/04/03 01:17:03;;;;;;;7.93;2.37;;;1.50;99.90;;;;;;6277375;22;20531;-86
2023/04/03 01:19:29;;;;;;;8.27;2.43;;;-0.10;99.90;;;;;;6276104;22;20335;-86
2023/04/03 01:22:24;;;;;;;8.40;2.03;;;0.40;99.90;;;;;;6275668;22;20474;-86
2023/04/03 01:24:53;;;;;;;8.17;2.23;;;0.60;99.90;;;;;;6256489;22;20103;-86
2023/04/03 01:27:20;;;;;;;7.53;2.33;;;0.50;99.90;;;;;;6274406;22;20351;-86
2023/04/03 01:33:45;;;;;;;6.17;1.87;;;0.90;99.90;;;;;;6283136;22;20010;-86
2023/04/03 01:36:23;;;;;;;7.82;2.20;;;0.10;99.90;;;;;;6281930;22;20022;-86
2023/04/03 01:39:00;;;;;;;8.83;2.40;;;0.40;99.90;;;;;;6275824;22;20098;-86
2023/04/03 01:41:35;;;;;;;8.67;2.30;;;0.30;99.90;;;;;;6300762;22;20039;-86
2023/04/03 01:44:03;;;;;;;7.93;2.27;;;0.20;99.90;;;;;;6275345;22;20019;-87
2023/04/03 01:46:44;;;;;;;8.17;2.23;;;0.40;99.90;;;;;;6277308;22;20016;-87
2023/04/03 01:49:10;;;;;;;8.97;2.30;;;0.10;99.90;;;;;;6277850;22;20016;-86
2023/04/03 01:51:36;;;;;;;9.33;2.40;;;0.90;99.90;;;;;;6277629;22;20015;-86
2023/04/03 01:54:17;;;;;;;7.03;2.20;;;1.60;99.90;;;;;;6276325;22;20011;-86
2023/04/03 01:56:42;;;;;;;7.90;2.30;;;0.10;99.90;;;;;;6281585;22;20134;-86
2023/04/03 01:59:08;;;;;;;7.27;2.30;;;0.20;99.90;;;;;;6277843;22;20366;-87
2023/04/03 02:01:34;;;;;;;8.63;2.40;;;0.30;99.90;;;;;;6274565;22;20336;-86
2023/04/03 02:04:14;;;;;;;8.90;2.30;;;0.20;99.90;;;;;;6277017;22;20041;-87
2023/04/03 02:06:40;;;;;;;9.10;2.40;;;0.40;99.90;;;;;;6275043;22;20424;-87
2023/04/03 02:09:06;;;;;;;8.10;2.37;;;0.00;99.90;;;;;;6275971;22;20070;-87
2023/04/03 02:11:52;;;;;;;7.30;2.10;;;0.10;99.90;;;;;;6275560;22;20103;-86
2023/04/03 02:18:08;;;;;;;9.67;2.60;;;0.20;99.90;;;;;;6277435;22;20095;-87
2023/04/03 02:20:37;;;;;;;10.17;2.60;;;-0.30;99.90;;;;;;6277169;22;20443;-87
2023/04/03 02:23:12;;;;;;;11.37;2.40;;;-0.20;99.90;;;;;;6274886;22;20065;-86
2023/04/03 02:25:37;;;;;;;8.77;2.50;;;1.30;99.90;;;;;;6277316;22;20042;-87
2023/04/03 02:28:09;;;;;;;9.30;2.70;;;-0.30;99.90;;;;;;6275398;22;20011;-87
2023/04/03 02:30:35;;;;;;;8.57;2.43;;;-0.50;99.90;;;;;;6274515;22;20027;-87
2023/04/03 02:33:06;;;;;;;7.63;2.40;;;-0.20;99.90;;;;;;6275146;22;20012;-87
2023/04/03 02:35:32;;;;;;;7.60;2.30;;;-0.40;99.90;;;;;;6277079;22;20443;-87
2023/04/03 02:38:10;;;;;;;9.90;2.60;;;-0.30;99.90;;;;;;6275714;22;20030;-87
2023/04/03 02:40:36;;;;;;;10.63;2.70;;;-1.20;99.90;;;;;;6274985;22;20016;-87
2023/04/03 02:43:01;;;;;;;9.43;2.97;;;-0.60;99.90;;;;;;6299368;22;20091;-87
2023/04/03 02:45:27;;;;;;;9.70;2.50;;;-0.40;99.90;;;;;;6275355;22;20099;-87
2023/04/03 02:48:21;;;;;;;8.23;2.57;;;-0.40;99.90;;;;;;6274788;22;20019;-87
2023/04/03 02:51:08;;;;;;;;;;;0.60;99.90;;;;;;6276625;22;20019;-87
2023/04/03 02:53:33;;;;;;;7.67;2.50;;;0.00;99.90;;;;;;6276508;22;19917;-86
2023/04/03 02:55:59;;;;;;;10.13;2.50;;;-0.70;99.90;;;;;;6276704;22;20058;-86
2023/04/03 02:58:24;;;;;;;9.63;2.50;;;1.20;99.90;;;;;;6288107;22;20042;-87
2023/04/03 03:01:06;;;;;;;10.13;2.60;;;-0.50;99.90;;;;;;6301417;22;20016;-87
2023/04/03 03:03:32;;;;;;;8.70;2.70;;;-0.50;99.90;;;;;;6289943;22;20087;-87
2023/04/03 03:06:22;;;;;;;9.37;2.60;;;-0.60;99.90;;;;;;6297570;22;20335;-87
2023/04/03 03:08:48;;;;;;;10.53;2.67;;;-0.50;99.90;;;;;;6327300;22;20038;-86
2023/04/03 03:11:14;;;;;;;14.17;3.33;;;-0.60;99.90;;;;;;6294094;22;20762;-87
2023/04/03 03:13:55;;;;;;;12.03;3.03;;;-0.50;99.90;;;;;;6307767;22;20015;-87
2023/04/03 03:16:20;;;;;;;10.43;2.90;;;-0.50;99.90;;;;;;6305616;22;20015;-87
2023/04/03 03:18:52;;;;;;;11.10;2.80;;;-0.80;99.90;;;;;;6305028;22;20015;-87
2023/04/03 03:21:18;;;;;;;9.13;2.70;;;-0.60;99.90;;;;;;6302815;22;20149;-86
2023/04/03 03:23:43;;;;;;;9.60;2.80;;;-0.90;99.90;;;;;;6276665;22;20039;-86
2023/04/03 03:26:16;;;;;;;12.43;3.10;;;-0.60;99.90;;;;;;6273546;22;20070;-86
2023/04/03 03:28:42;;;;;;;8.43;2.88;;;0.20;99.90;;;;;;6299291;22;20043;-86
2023/04/03 03:31:08;;;;;;;9.73;2.70;;;-0.70;99.90;;;;;;6279211;22;20011;-86
2023/04/03 03:33:49;;;;;;;7.90;2.60;;;-0.80;99.90;;;;;;6275857;22;20011;-87
2023/04/03 03:36:15;;;;;;;8.80;2.60;;;-0.80;99.90;;;;;;6294156;22;20098;-86
2023/04/03 03:38:50;;;;;;;8.93;2.90;;;-0.90;99.90;;;;;;6274461;22;20396;-86
2023/04/03 03:41:15;;;;;;;8.67;2.90;;;-1.20;99.90;;;;;;6274770;22;20435;-86
2023/04/03 03:43:41;;;;;;;10.67;2.83;;;-1.20;99.90;;;;;;6275657;22;20065;-87
2023/04/03 03:46:26;;;;;;;11.13;2.73;;;-1.00;99.90;;;;;;6272380;22;20015;-86
2023/04/03 03:48:55;;;;;;;9.60;2.97;;;-1.00;99.90;;;;;;6275474;22;20020;-86
2023/04/03 03:51:21;;;;;;;11.57;3.47;;;-1.30;99.90;;;;;;6273346;22;20023;-87
2023/04/03 03:53:46;;;;;;;10.70;3.13;;;-1.10;99.90;;;;;;6274633;22;20019;-87
2023/04/03 03:56:27;;;;;;;10.33;2.87;;;-1.10;99.90;;;;;;6272872;22;20499;-86
2023/04/03 03:58:52;;;;;;;11.83;3.37;;;-1.30;99.90;;;;;;6273617;22;20019;-86
2023/04/03 04:01:33;;;;;;;8.83;2.80;;;-1.30;99.90;;;;;;6271315;22;20108;-87
2023/04/03 04:03:59;;;;;;;9.77;2.60;;;-1.10;99.90;;;;;;6272271;22;20019;-87
2023/04/03 04:06:43;;;;;;;12.00;2.70;;;-1.50;99.90;;;;;;6272297;22;20015;-86
2023/04/03 04:09:09;;;;;;;9.32;3.40;;;-1.50;99.90;;;;;;6271880;22;20069;-87
2023/04/03 04:11:35;;;;;;;11.57;3.20;;;-0.20;99.90;;;;;;6273235;22;20011;-87
2023/04/03 04:14:12;;;;;;;9.53;2.80;;;-0.70;99.90;;;;;;6274909;22;20012;-87
2023/04/03 04:16:37;;;;;;;10.03;3.63;;;-1.30;99.90;;;;;;6275165;22;20016;-87
2023/04/03 04:19:16;;;;;;;;;;;;;;;;;;;;;
2023/04/03 04:21:51;;;;;;;10.20;3.53;;;-1.20;99.90;;;;;;6271943;22;20070;-87
2023/04/03 04:24:17;;;;;;;12.80;3.60;;;-1.60;99.90;;;;;;6272795;22;20455;-87
2023/04/03 04:26:43;;;;;;;10.83;3.60;;;-1.30;99.90;;;;;;6275149;22;20007;-87
2023/04/03 04:29:10;;;;;;;9.90;3.07;;;-1.50;99.90;;;;;;6273608;22;20362;-87
2023/04/03 04:31:47;;;;;;;11.13;3.20;;;-1.30;99.90;;;;;;6272877;22;20137;-86
2023/04/03 04:34:13;;;;;;;12.93;3.33;;;-0.90;99.90;;;;;;6225479;22;1118430;-86
2023/04/03 04:36:39;;;;;;;10.00;3.30;;;-1.40;99.90;;;;;;6276229;22;20019;-87
2023/04/03 04:39:05;;;;;;;11.60;3.63;;;-1.50;99.90;;;;;;6276220;22;20350;-87
2023/04/03 04:41:46;;;;;;;10.67;3.20;;;-0.20;99.90;;;;;;6277967;22;20016;-86
2023/04/03 04:44:12;;;;;;;10.67;3.57;;;-1.60;99.90;;;;;;6299669;22;20075;-86
2023/04/03 04:46:40;;;;;;;10.93;3.73;;;-1.50;99.90;;;;;;6277868;22;20011;-87
2023/04/03 04:49:05;;;;;;;10.50;3.50;;;-0.10;99.90;;;;;;6276278;22;20016;-86
2023/04/03 04:51:31;;;;;;;10.07;3.33;;;-1.40;99.90;;;;;;6276851;22;20527;-86
2023/04/03 04:54:12;;;;;;;11.93;3.43;;;-1.50;99.90;;;;;;6272175;22;20095;-87
2023/04/03 04:56:37;;;;;;;10.30;3.63;;;-1.60;99.90;;;;;;6277409;22;20113;-87
2023/04/03 04:59:21;;;;;;;11.00;3.13;;;-1.50;99.90;;;;;;6278897;22;20051;-86
2023/04/03 05:01:47;;;;;;;9.93;3.35;;;-1.70;99.90;;;;;;6277589;22;20015;-86
2023/04/03 05:04:13;;;;;;;10.50;3.27;;;-1.60;99.90;;;;;;6275373;22;20011;-87
2023/04/03 05:06:55;;;;;;;9.67;3.27;;;-1.70;99.90;;;;;;6278792;22;20019;-86
2023/04/03 05:09:21;;;;;;;9.63;3.30;;;-1.50;99.90;;;;;;6277630;22;20011;-86
2023/04/03 05:11:46;;;;;;;11.13;3.30;;;-1.50;99.90;;;;;;6276453;22;20016;-87
2023/04/03 05:14:24;;;;;;;11.33;3.87;;;-1.40;99.90;;;;;;6277815;22;20019;-87
2023/04/03 05:17:05;;;;;;;11.60;3.60;;;-1.40;99.90;;;;;;6278177;22;20069;-87
2023/04/03 05:19:31;;;;;;;11.83;3.63;;;-1.70;99.90;;;;;;6276133;22;20015;-87
2023/04/03 05:21:56;;;;;;;8.63;3.47;;;0.00;99.90;;;;;;6277590;22;20008;-87
2023/04/03 05:24:22;;;;;;;11.53;3.50;;;-0.10;99.90;;;;;;6277912;22;20023;-87
2023/04/03 05:27:29;;;;;;;9.77;3.40;;;-1.50;99.90;;;;;;6274849;22;20050;-86
2023/04/03 05:30:08;;;;;;;10.83;3.13;;;-1.10;99.90;;;;;;6159143;23;20017;-87
2023/04/03 05:32:33;;;;;;;11.07;3.40;;;-1.40;99.90;;;;;;6198765;22;20098;-81
2023/04/03 05:34:59;;;;;;;12.13;3.13;;;-1.30;99.90;;;;;;6276210;22;20062;-82
2023/04/03 05:37:39;;;;;;;11.53;3.20;;;-1.50;99.90;;;;;;6275565;22;20016;-82
2023/04/03 05:40:05;;;;;;;14.20;4.13;;;-1.30;99.90;;;;;;6274233;22;20424;-86
2023/04/03 05:42:31;;;;;;;8.50;3.10;;;-1.20;99.90;;;;;;6277420;22;20022;-82
2023/04/03 05:44:57;;;;;;;9.83;3.10;;;-1.20;99.90;;;;;;6275227;22;20019;-82
2023/04/03 05:47:23;;;;;;;9.40;3.47;;;-2.20;99.90;;;;;;6276449;22;20012;-81
2023/04/03 05:49:48;;;;;;;10.77;3.13;;;-1.10;99.90;;;;;;6277027;22;20095;-82
2023/04/03 05:52:25;;;;;;;9.00;3.20;;;-0.80;99.90;;;;;;6277056;22;20074;-81
2023/04/03 05:54:51;;;;;;;9.13;3.30;;;0.00;99.90;;;;;;6274932;22;20103;-84
2023/04/03 05:57:18;;;;;;;11.70;3.30;;;-1.00;99.90;;;;;;6277086;22;20058;-83
2023/04/03 05:59:45;;;;;;;10.80;3.27;;;-1.00;99.90;;;;;;6274691;22;20097;-81
2023/04/03 06:02:13;;;;;;;9.80;3.30;;;-0.90;99.90;;;;;;6274897;22;20016;-81
2023/04/03 06:04:38;;;;;;;10.53;3.17;;;-0.90;99.90;;;;;;6277251;22;20026;-81
2023/04/03 06:07:15;;;;;;;10.03;3.23;;;-0.80;99.90;;;;;;6274015;22;20016;-84
2023/04/03 06:09:41;;;;;;;12.03;3.47;;;-0.80;99.90;;;;;;6277410;22;20096;-85
2023/04/03 06:12:07;;;;;;;10.80;3.10;;;-0.80;99.90;;;;;;6276942;22;20039;-81
2023/04/03 06:14:33;;;;;;;10.63;3.00;;;0.60;99.90;;;;;;6274374;22;20455;-83
2023/04/03 06:16:59;;;;;;;9.10;3.10;;;-0.60;99.90;;;;;;6274703;22;20436;-84
2023/04/03 06:19:25;;;;;;;10.90;3.00;;;0.30;99.90;;;;;;6275842;22;20095;-84
2023/04/03 06:21:53;;;;;;;11.30;3.10;;;-0.50;99.90;;;;;;6278380;22;20012;-84
2023/04/03 06:24:21;;;;;;;10.83;2.90;;;-0.40;99.90;;;;;;6274992;22;20039;-83
2023/04/03 06:26:47;;;;;;;10.60;2.97;;;-0.30;99.90;;;;;;6276454;22;20012;-86
2023/04/03 06:29:28;;;;;;;10.93;2.80;;;-0.30;99.90;;;;;;6273934;22;20332;-86
2023/04/03 06:31:54;;;;;;;10.37;2.80;;;-0.30;99.90;;;;;;6276895;22;20026;-84
2023/04/03 06:34:20;;;;;;;11.50;3.10;;;0.10;99.90;;;;;;6277232;22;20048;-85
2023/04/03 06:37:37;;;;;;;9.97;2.77;;;0.00;99.90;;;;;;6278988;22;20015;-84
2023/04/03 06:40:04;;;;;;;8.90;2.60;;;0.40;99.90;;;;;;6300582;22;20055;-85
2023/04/03 06:42:30;;;;;;;10.63;2.87;;;0.20;99.90;;;;;;6274225;22;20011;-86
2023/04/03 06:44:55;;;;;;;10.70;2.80;;;0.30;99.90;;;;;;6300985;22;20020;-85
2023/04/03 06:47:21;;;;;;;8.23;2.37;;;0.40;99.90;;;;;;6300607;22;20015;-85
2023/04/03 06:49:46;;;;;;;10.03;2.67;;;0.50;99.90;;;;;;6299963;22;20509;-85
2023/04/03 06:58:09;;;;;;;9.77;2.43;;;-0.20;99.90;;;;;;6306035;22;20022;-85
2023/04/03 07:00:35;;;;;;;8.17;2.43;;;0.70;99.90;;;;;;6332473;22;20019;-85
2023/04/03 07:03:42;;;;;;;11.07;2.50;;;0.80;99.90;;;;;;6306444;22;20099;-87
2023/04/03 07:07:00;;;;;;;9.27;2.40;;;1.60;99.90;;;;;;6273782;22;20035;-86
2023/04/03 07:09:26;;;;;;;7.73;2.40;;;1.10;99.90;;;;;;6248270;22;20069;-85
2023/04/03 07:12:26;;;;;;;7.50;2.33;;;1.10;99.90;;;;;;6272621;22;20016;-85
2023/04/03 07:14:51;;;;;;;10.17;2.50;;;1.10;99.90;;;;;;6290947;22;20049;-84
2023/04/03 07:17:17;;;;;;;9.40;2.40;;;1.00;99.90;;;;;;6304056;22;20023;-88
2023/04/03 07:19:52;;;;;;;9.50;2.13;;;1.00;99.90;;;;;;6307148;22;20022;-86
2023/04/03 07:22:18;;;;;;;8.00;2.30;;;2.40;99.90;;;;;;6306704;22;20474;-83
2023/04/03 07:24:43;;;;;;;10.63;2.60;;;1.20;99.90;;;;;;6305085;22;20011;-84
2023/04/03 07:27:10;;;;;;;8.20;2.40;;;1.50;99.90;;;;;;6303631;22;20022;-86
2023/04/03 07:29:36;;;;;;;9.73;2.40;;;1.90;99.90;;;;;;6306988;22;20090;-84
2023/04/03 07:34:51;;;;;;;10.97;2.57;;;1.80;99.90;;;;;;6307556;22;20467;-84
2023/04/03 07:37:17;;;;;;;9.30;2.40;;;1.60;99.90;;;;;;6279557;22;20058;-86
2023/04/03 07:39:46;;;;;;;9.13;2.50;;;1.90;99.90;;;;;;6279204;22;20026;-83
2023/04/03 07:42:12;;;;;;;8.60;2.23;;;2.00;99.90;;;;;;6279401;22;20012;-87
2023/04/03 07:44:38;;;;;;;9.90;2.77;;;2.10;99.90;;;;;;6280299;22;20065;-83
2023/04/03 07:47:03;;;;;;;9.13;2.43;;;2.20;99.90;;;;;;6278790;22;20016;-83
2023/04/03 07:49:37;;;;;;;10.93;2.40;;;2.30;99.90;;;;;;6280095;22;20019;-85
2023/04/03 07:52:07;;;;;;;8.75;2.10;;;3.20;99.90;;;;;;6309963;22;20021;-84
2023/04/03 07:54:33;;;;;;;10.07;2.30;;;2.50;99.90;;;;;;6278942;22;20027;-84
2023/04/03 07:56:59;;;;;;;9.77;2.20;;;2.60;99.90;;;;;;6279267;22;20020;-84
2023/04/03 07:59:24;;;;;;;8.60;2.17;;;2.60;99.90;;;;;;6306703;22;20029;-85
2023/04/03 08:02:15;;;;;;;8.97;2.03;;;2.70;99.90;;;;;;6278925;22;20031;-83
2023/04/03 08:04:59;;;;;;;7.90;1.90;;;2.00;99.90;;;;;;6303868;22;20462;-84
2023/04/03 08:07:38;;;;;;;5.80;1.83;;;2.00;99.90;;;;;;6304499;22;20086;-81
2023/04/03 08:10:06;;;;;;;8.23;1.97;;;2.50;99.90;;;;;;6311710;22;20257;-84
2023/04/03 08:12:34;;;;;;;10.17;2.00;;;3.00;99.90;;;;;;6282066;22;20021;-84
2023/04/03 08:15:09;;;;;;;9.93;2.30;;;3.10;99.90;;;;;;6302741;22;20021;-85
2023/04/03 08:17:51;;;;;;;10.07;2.77;;;3.40;99.90;;;;;;6307986;22;20051;-84
2023/04/03 08:20:20;;;;;;;7.73;2.00;;;3.30;99.90;;;;;;6306802;22;20102;-84
2023/04/03 08:23:01;;;;;;;7.50;1.83;;;3.60;99.90;;;;;;6306786;22;20060;-84
2023/04/03 08:25:42;;;;;;;6.83;1.83;;;3.70;99.90;;;;;;6308573;22;20015;-84
2023/04/03 08:28:11;;;;;;;7.77;1.70;;;4.30;99.90;;;;;;6306241;22;20361;-86
2023/04/03 08:31:01;;;;;;;7.93;1.90;;;3.90;99.90;;;;;;6281433;22;20084;-84
2023/04/03 08:33:36;;;;;;;7.53;1.83;;;3.80;99.90;;;;;;6274786;22;20111;-84
2023/04/03 08:36:23;;;;;;;6.43;1.90;;;4.00;99.90;;;;;;6276246;22;20019;-84
2023/04/03 08:39:08;;;;;;;9.10;2.00;;;4.20;99.90;;;;;;6301328;22;20452;-83
2023/04/03 08:42:02;;;;;;;7.67;1.70;;;4.30;99.90;;;;;;6277077;22;20020;-82
2023/04/03 08:44:59;;;;;;;6.45;1.83;;;4.70;99.90;;;;;;6254051;22;20078;-82
2023/04/03 08:47:43;;;;;;;7.10;1.70;;;4.30;99.90;;;;;;6302440;22;20022;-82
2023/04/03 08:50:31;;;;;;;;;;;;;;;;;;;;;
2023/04/03 08:53:28;;;;;;;5.70;1.60;;;6.20;99.90;;;;;;6244182;22;20020;-82
2023/04/03 08:55:55;;;;;;;6.03;2.20;;;6.20;99.90;;;;;;6275400;22;20012;-82
2023/04/03 08:58:25;;;;;;;7.03;1.80;;;4.60;99.90;;;;;;6301843;22;20042;-82
2023/04/03 09:00:51;;;;;;;6.37;1.90;;;4.80;99.90;;;;;;6278373;22;20016;-82
2023/04/03 09:03:20;;;;;;;7.20;2.30;;;4.90;99.90;;;;;;6300762;22;20020;-82
2023/04/03 09:06:13;;;;;;;7.87;2.10;;;5.00;99.90;;;;;;6302899;22;20015;-86
2023/04/03 09:08:58;;;;;;;9.90;1.80;;;5.10;99.90;;;;;;6276499;22;20065;-83
2023/04/03 09:11:28;;;;;;;6.40;1.73;;;5.20;99.90;;;;;;6274878;22;20459;-83
2023/04/03 09:14:08;;;;;;;5.47;1.60;;;6.10;99.90;;;;;;6275803;22;20023;-83
2023/04/03 09:16:55;;;;;;;6.17;2.13;;;5.30;99.90;;;;;;6276344;22;20035;-83
2023/04/03 09:19:38;;;;;;;5.57;1.60;;;5.30;99.90;;;;;;6275632;22;20012;-83
2023/04/03 09:22:38;;;;;;;7.03;1.83;;;5.50;99.90;;;;;;6301695;22;20016;-83
2023/04/03 09:25:27;;;;;;;7.77;1.70;;;5.50;99.90;;;;;;6274681;22;20089;-83
2023/04/03 09:27:53;;;;;;;9.27;1.70;;;5.60;99.90;;;;;;6275722;22;20012;-81
2023/04/03 09:30:23;;;;;;;7.77;1.67;;;6.70;99.90;;;;;;6301034;22;20462;-81
2023/04/03 09:32:51;;;;;;;7.17;1.63;;;5.90;99.90;;;;;;6277975;22;20008;-80
2023/04/03 09:35:30;;;;;;;6.77;1.70;;;6.00;99.90;;;;;;6285499;22;20534;-80
2023/04/03 09:38:13;;;;;;;5.03;1.70;;;6.30;99.90;;;;;;6275768;22;20008;-84
2023/04/03 09:40:41;;;;;;;6.87;1.70;;;6.10;99.90;;;;;;6286561;22;20019;-84
2023/04/03 09:43:29;;;;;;;5.43;1.60;;;7.00;99.90;;;;;;6288519;22;20007;-83
2023/04/03 09:46:16;;;;;;;5.57;1.50;;;6.30;99.90;;;;;;6277536;22;20313;-83
2023/04/03 09:48:51;;;;;;;5.43;1.53;;;6.50;99.90;;;;;;6276066;22;20022;-83
2023/04/03 09:51:16;;;;;;;5.80;1.77;;;6.60;99.90;;;;;;6301358;22;20471;-83
2023/04/03 09:53:51;;;;;;;7.10;1.80;;;6.70;99.90;;;;;;6274349;22;20450;-83
2023/04/03 09:56:17;;;;;;;6.27;1.50;;;7.60;99.90;;;;;;6275381;22;20024;-83
2023/04/03 09:59:01;;;;;;;7.83;1.50;;;8.50;99.90;;;;;;6301437;22;20019;-83
2023/04/03 10:02:21;;;;;;;5.37;1.40;;;7.40;99.90;;;;;;6277525;22;20047;-84
2023/04/03 10:04:50;;;;;;;5.63;1.40;;;7.10;99.90;;;;;;6270141;22;20023;-84
2023/04/03 10:07:27;;;;;;;7.03;1.80;;;7.20;99.90;;;;;;6298890;22;20020;-83
2023/04/03 10:09:59;;;;;;;6.27;1.67;;;8.70;99.90;;;;;;6301335;22;20386;-83
2023/04/03 10:13:16;;;;;;;3.77;1.40;;;9.10;99.90;;;;;;6288360;22;20011;-83
2023/04/03 10:16:07;;;;;;;5.83;1.40;;;7.70;99.90;;;;;;6277013;22;20055;-84
2023/04/03 10:19:23;;;;;;;4.23;1.40;;;7.90;99.90;;;;;;6277200;22;20065;-83
2023/04/03 10:22:47;;;;;;;5.07;1.50;;;8.10;99.90;;;;;;6250375;22;20530;-84
2023/04/03 10:25:50;;;;;;;6.55;1.63;;;8.50;99.90;;;;;;6158033;23;20492;-84
2023/04/03 10:28:45;;;;;;;4.50;1.42;;;8.70;99.90;;;;;;6182263;23;20017;-84
2023/04/03 10:31:32;;;;;;;6.15;1.55;;;8.60;99.90;;;;;;6275957;22;20016;-84
2023/04/03 10:34:21;;;;;;;5.30;1.60;;;7.90;99.90;;;;;;6274988;22;20027;-84
2023/04/03 10:40:45;;;;;;;4.18;1.40;;;8.70;99.90;;;;;;6274090;22;20387;-84
2023/04/03 10:43:53;;;;;;;3.20;1.40;;;8.20;99.90;;;;;;6274294;22;20016;-84
2023/04/03 10:46:43;;;;;;;4.78;1.30;;;9.60;99.70;;;;;;6275061;22;20011;-84
2023/04/03 10:49:46;;;;;;;5.13;1.40;;;9.30;99.90;;;;;;6275975;22;20030;-84
2023/04/03 10:52:40;;;;;;;6.25;1.80;;;9.30;99.90;;;;;;6275036;22;20016;-84
2023/04/03 10:58:41;;;;;;;6.68;1.77;;;9.70;99.90;;;;;;6244196;23;20333;-84
2023/04/03 11:01:23;;;;;;;5.38;1.70;;;9.80;99.90;;;;;;6246146;22;20079;-83
2023/04/03 11:03:58;;;;;;;5.75;1.70;;;10.90;99.60;;;;;;6246165;23;20344;-82
2023/04/03 11:06:26;;;;;;;5.70;1.60;;;10.90;99.90;;;;;;6245655;23;20012;-82
2023/04/03 11:09:27;;;;;;;6.55;2.17;;;11.00;99.90;;;;;;6246335;22;20095;-82
2023/04/03 11:15:24;;;;;;;5.28;1.63;;;9.90;99.90;;;;;;6243945;23;20020;-82
2023/04/03 11:21:44;;;;;;;5.32;1.70;;;10.10;99.90;;;;;;6243865;23;20019;-82
2023/04/03 11:24:36;;;;;;;5.88;1.83;;;10.30;99.90;;;;;;6282812;22;20031;-82
2023/04/03 11:34:51;;;;;;;6.53;1.80;;;10.30;96.10;;;;;;6274989;22;20043;-81
2023/04/03 11:45:25;;;;;;;8.25;1.73;;;10.30;99.20;;;;;;6274182;22;20042;-82
2023/04/03 11:47:54;;;;;;;4.63;1.52;;;10.70;99.30;;;;;;6274731;22;20102;-81
2023/04/03 11:50:38;;;;;;;5.47;1.50;;;10.50;99.90;;;;;;6274511;22;20046;-81
2023/04/03 11:53:07;;;;;;;;;;;10.50;99.90;;;;;;6273968;22;20081;-82
2023/04/03 11:55:33;;;;;;;5.47;1.67;;;10.80;98.10;;;;;;6275609;22;19919;-81
2023/04/03 11:57:59;;;;;;;7.57;1.80;;;10.90;99.90;;;;;;6274229;22;20022;-81
2023/04/03 12:00:43;;;;;;;5.25;1.60;;;11.50;99.90;;;;;;6275248;22;20447;-81
2023/04/03 12:03:27;;;;;;;;;;;10.90;97.30;;;;;;6276301;22;20019;-82
2023/04/03 12:05:54;;;;;;;5.30;1.70;;;10.90;95.60;;;;;;6273738;22;19919;-82
2023/04/03 12:08:26;;;;;;;5.18;1.70;;;10.90;99.90;;;;;;6276111;22;20076;-81
2023/04/03 12:11:13;;;;;;;7.32;1.70;;;11.10;99.90;;;;;;6274335;22;20439;-81
2023/04/03 12:14:03;;;;;;;5.10;1.58;;;11.10;99.80;;;;;;6275554;22;20015;-82
2023/04/03 12:16:51;;;;;;;6.70;1.88;;;11.40;98.90;;;;;;6275951;22;20432;-82
2023/04/03 12:19:43;;;;;;;7.97;1.95;;;12.30;98.60;;;;;;6274107;22;20081;-82
2023/04/03 12:22:11;;;;;;;6.97;1.70;;;11.40;97.70;;;;;;6275989;22;20050;-82
2023/04/03 12:24:40;;;;;;;6.75;1.80;;;12.60;99.90;;;;;;6275931;22;20023;-82
2023/04/03 12:27:09;;;;;;;6.07;1.75;;;12.40;99.90;;;;;;6273145;22;20020;-82
2023/04/03 12:29:42;;;;;;;6.70;1.80;;;11.50;99.90;;;;;;6276548;22;20020;-82
2023/04/03 12:32:14;;;;;;;6.32;1.67;;;12.10;99.90;;;;;;6274548;22;20023;-81
2023/04/03 12:34:54;;;;;;;6.32;1.75;;;11.40;98.00;;;;;;6273925;22;20477;-81
2023/04/03 12:38:05;;;;;;;5.50;1.70;;;11.40;99.20;;;;;;6275556;22;20509;-81
2023/04/03 12:40:41;;;;;;;6.90;1.73;;;11.40;97.60;;;;;;6276559;22;20008;-82
2023/04/03 12:43:22;;;;;;;5.68;1.80;;;12.20;98.60;;;;;;6274865;22;20022;-81
2023/04/03 12:46:09;;;;;;;5.97;1.80;;;11.60;98.90;;;;;;6274433;22;20348;-82
2023/04/03 12:48:44;;;;;;;6.65;1.80;;;11.50;99.90;;;;;;6273468;22;20011;-81
2023/04/03 12:51:34;;;;;;;7.72;1.75;;;12.40;98.80;;;;;;6274174;22;20065;-82
2023/04/03 12:54:16;;;;;;;6.30;1.70;;;12.40;99.90;;;;;;6253294;22;20048;-82
2023/04/03 12:56:42;;;;;;;6.72;1.90;;;11.80;98.50;;;;;;6275418;22;20012;-82
2023/04/03 12:59:23;;;;;;;6.15;1.80;;;11.80;99.90;;;;;;6275709;22;20423;-81
2023/04/03 13:01:58;;;;;;;7.07;2.17;;;11.90;98.80;;;;;;6275381;22;20449;-82
2023/04/03 13:04:24;;;;;;;8.57;3.20;;;12.80;99.60;;;;;;6276371;22;20051;-83
2023/04/03 13:06:50;;;;;;;4.85;1.70;;;12.00;99.00;;;;;;6276010;22;20011;-82
2023/04/03 13:09:22;;;;;;;5.63;1.80;;;12.20;99.80;;;;;;6276961;22;20019;-84
2023/04/03 13:11:56;;;;;;;5.68;1.90;;;12.30;99.20;;;;;;6278001;22;20016;-81
2023/04/03 13:14:24;;;;;;;7.40;1.90;;;12.30;97.70;;;;;;6275481;22;20047;-81
2023/04/03 13:17:12;;;;;;;6.90;1.70;;;12.40;99.10;;;;;;6275354;22;20015;-81
2023/04/03 13:19:38;;;;;;;7.10;1.80;;;12.40;98.50;;;;;;6277821;22;20087;-81
2023/04/03 13:22:29;;;;;;;6.72;1.98;;;12.80;99.90;;;;;;6275740;22;20016;-81
2023/04/03 13:24:57;;;;;;;6.47;1.75;;;12.60;98.30;;;;;;6276715;22;20073;-81
2023/04/03 13:27:23;;;;;;;4.97;1.70;;;13.30;99.80;;;;;;6277664;22;20078;-81
2023/04/03 13:29:56;;;;;;;7.28;1.80;;;12.40;99.30;;;;;;6275685;22;20466;-81
2023/04/03 13:32:26;;;;;;;7.35;1.92;;;12.40;99.30;;;;;;6275327;22;20461;-81
2023/04/03 13:34:52;;;;;;;7.47;2.00;;;12.50;99.20;;;;;;6276038;22;20023;-81
2023/04/03 13:37:33;;;;;;;5.22;1.70;;;13.30;99.60;;;;;;6276063;22;20458;-81
2023/04/03 13:40:00;;;;;;;6.60;2.00;;;13.00;98.50;;;;;;6275442;22;20023;-81
2023/04/03 13:42:31;;;;;;;8.52;2.20;;;12.60;99.60;;;;;;6277493;22;20015;-81
2023/04/03 13:45:19;;;;;;;7.20;1.98;;;12.60;98.20;;;;;;6276719;22;20339;-81
2023/04/03 13:47:47;;;;;;;6.82;2.10;;;12.60;94.70;;;;;;6277741;22;20023;-81
2023/04/03 13:50:15;;;;;;;6.47;2.00;;;12.50;99.10;;;;;;6275464;22;20011;-81
2023/04/03 13:52:52;;;;;;;8.07;2.40;;;12.40;99.10;;;;;;6275312;22;20022;-81
2023/04/03 13:55:28;;;;;;;6.53;1.90;;;12.60;98.40;;;;;;6276850;22;20022;-82
2023/04/03 13:58:01;;;;;;;7.40;2.10;;;12.80;98.50;;;;;;6275354;22;20419;-82
2023/04/03 14:00:39;;;;;;;5.28;1.80;;;12.90;99.10;;;;;;6277450;22;20016;-82
2023/04/03 14:03:24;;;;;;;6.40;2.00;;;12.90;95.40;;;;;;6277238;22;20061;-81
2023/04/03 14:05:50;;;;;;;7.57;1.90;;;13.10;97.40;;;;;;6276869;22;20028;-82
2023/04/03 14:08:16;;;;;;;6.03;1.80;;;13.00;98.70;;;;;;6275250;22;20489;-82
2023/04/03 14:10:42;;;;;;;6.95;2.65;;;13.80;98.60;;;;;;6278261;22;20079;-82
2023/04/03 14:13:13;;;;;;;6.68;1.80;;;14.00;98.60;;;;;;6276804;22;20019;-82
2023/04/03 14:15:39;;;;;;;6.93;1.88;;;13.80;97.80;;;;;;6276559;22;20012;-82
2023/04/03 14:18:04;;;;;;;5.63;1.83;;;13.60;98.80;;;;;;6274798;22;20028;-82
2023/04/03 14:20:30;;;;;;;6.47;2.00;;;13.00;98.50;;;;;;6276402;22;20027;-82
2023/04/03 14:22:55;;;;;;;6.30;1.92;;;13.50;98.30;;;;;;6275325;22;20019;-82